sensor_id;sensor_type;location;lat;lon;timestamp;P1;durP1;ratioP1;P2;durP2;ratioP2
4810;SDS011;2419;51.276;6.472;2024-02-14T00:01:00;2.80;;;1.47;;
4810;SDS011;2419;51.276;6.472;2024-02-14T00:03:28;2.13;;;1.40;;
4810;SDS011;2419;51.276;6.472;2024-02-14T00:05:56;1.73;;;1.40;;
4810;SDS011;2419;51.276;6.472;2024-02-14T00:08:24;2.73;;;1.33;;
4810;SDS011;2419;51.276;6.472;2024-02-14T00:10:52;1.20;;;1.10;;
4810;SDS011;2419;51.276;6.472;2024-02-14T00:13:20;2.40;;;1.50;;
4810;SDS011;2419;51.276;6.472;2024-02-14T00:15:48;3.80;;;1.50;;
4810;SDS011;2419;51.276;6.472;2024-02-14T00:18:18;2.07;;;1.20;;
4810;SDS011;2419;51.276;6.472;2024-02-14T00:20:49;2.10;;;1.50;;
4810;SDS011;2419;51.276;6.472;2024-02-14T00:23:17;1.63;;;1.27;;
4810;SDS011;2419;51.276;6.472;2024-02-14T00:25:45;1.30;;;1.20;;
4810;SDS011;2419;51.276;6.472;2024-02-14T00:28:13;1.67;;;1.20;;
4810;SDS011;2419;51.276;6.472;2024-02-14T00:30:41;2.80;;;1.40;;
4810;SDS011;2419;51.276;6.472;2024-02-14T00:33:09;1.37;;;1.27;;
4810;SDS011;2419;51.276;6.472;2024-02-14T00:35:39;3.20;;;1.40;;
4810;SDS011;2419;51.276;6.472;2024-02-14T00:38:07;1.57;;;1.33;;
4810;SDS011;2419;51.276;6.472;2024-02-14T00:40:36;4.80;;;1.50;;
4810;SDS011;2419;51.276;6.472;2024-02-14T00:43:04;1.57;;;1.40;;
4810;SDS011;2419;51.276;6.472;2024-02-14T00:45:32;1.10;;;1.00;;
4810;SDS011;2419;51.276;6.472;2024-02-14T00:48:01;4.50;;;1.33;;
4810;SDS011;2419;51.276;6.472;2024-02-14T00:50:30;2.10;;;1.20;;
4810;SDS011;2419;51.276;6.472;2024-02-14T00:53:01;2.77;;;1.20;;
4810;SDS011;2419;51.276;6.472;2024-02-14T00:55:29;1.57;;;1.30;;
4810;SDS011;2419;51.276;6.472;2024-02-14T00:57:58;1.37;;;1.23;;
4810;SDS011;2419;51.276;6.472;2024-02-14T01:00:26;2.93;;;1.40;;
4810;SDS011;2419;51.276;6.472;2024-02-14T01:02:54;2.03;;;1.13;;
4810;SDS011;2419;51.276;6.472;2024-02-14T01:05:24;2.60;;;1.07;;
4810;SDS011;2419;51.276;6.472;2024-02-14T01:07:53;2.17;;;1.30;;
4810;SDS011;2419;51.276;6.472;2024-02-14T01:10:22;3.13;;;1.47;;
4810;SDS011;2419;51.276;6.472;2024-02-14T01:12:51;1.30;;;1.20;;
4810;SDS011;2419;51.276;6.472;2024-02-14T01:15:19;1.47;;;1.23;;
4810;SDS011;2419;51.276;6.472;2024-02-14T01:17:48;2.10;;;1.50;;
4810;SDS011;2419;51.276;6.472;2024-02-14T01:20:16;4.30;;;1.77;;
4810;SDS011;2419;51.276;6.472;2024-02-14T01:22:44;1.80;;;1.40;;
4810;SDS011;2419;51.276;6.472;2024-02-14T01:25:13;2.07;;;1.40;;
4810;SDS011;2419;51.276;6.472;2024-02-14T01:27:42;1.37;;;1.10;;
4810;SDS011;2419;51.276;6.472;2024-02-14T01:30:11;1.30;;;0.93;;
4810;SDS011;2419;51.276;6.472;2024-02-14T01:32:39;2.10;;;1.50;;
4810;SDS011;2419;51.276;6.472;2024-02-14T01:35:07;2.30;;;1.40;;
4810;SDS011;2419;51.276;6.472;2024-02-14T01:37:36;2.80;;;1.43;;
4810;SDS011;2419;51.276;6.472;2024-02-14T01:40:04;2.40;;;1.50;;
4810;SDS011;2419;51.276;6.472;2024-02-14T01:42:34;2.43;;;1.57;;
4810;SDS011;2419;51.276;6.472;2024-02-14T01:45:04;3.70;;;1.60;;
4810;SDS011;2419;51.276;6.472;2024-02-14T01:47:33;1.60;;;1.13;;
4810;SDS011;2419;51.276;6.472;2024-02-14T01:50:01;1.70;;;1.37;;
4810;SDS011;2419;51.276;6.472;2024-02-14T01:52:30;1.83;;;1.37;;
4810;SDS011;2419;51.276;6.472;2024-02-14T01:54:58;1.30;;;1.20;;
4810;SDS011;2419;51.276;6.472;2024-02-14T01:57:26;2.30;;;1.27;;
4810;SDS011;2419;51.276;6.472;2024-02-14T01:59:55;3.67;;;1.47;;
4810;SDS011;2419;51.276;6.472;2024-02-14T02:02:27;1.37;;;1.10;;
4810;SDS011;2419;51.276;6.472;2024-02-14T02:04:55;1.40;;;1.30;;
4810;SDS011;2419;51.276;6.472;2024-02-14T02:07:23;2.10;;;1.53;;
4810;SDS011;2419;51.276;6.472;2024-02-14T02:09:51;1.40;;;1.30;;
4810;SDS011;2419;51.276;6.472;2024-02-14T02:12:20;3.80;;;1.27;;
4810;SDS011;2419;51.276;6.472;2024-02-14T02:14:48;1.73;;;1.10;;
4810;SDS011;2419;51.276;6.472;2024-02-14T02:17:16;1.93;;;1.40;;
4810;SDS011;2419;51.276;6.472;2024-02-14T02:19:45;2.50;;;1.47;;
4810;SDS011;2419;51.276;6.472;2024-02-14T02:22:13;1.43;;;1.30;;
4810;SDS011;2419;51.276;6.472;2024-02-14T02:24:43;2.57;;;1.70;;
4810;SDS011;2419;51.276;6.472;2024-02-14T02:27:11;3.67;;;1.50;;
4810;SDS011;2419;51.276;6.472;2024-02-14T02:29:42;1.57;;;1.40;;
4810;SDS011;2419;51.276;6.472;2024-02-14T02:32:10;1.90;;;1.43;;
4810;SDS011;2419;51.276;6.472;2024-02-14T02:34:38;4.27;;;1.70;;
4810;SDS011;2419;51.276;6.472;2024-02-14T02:37:07;3.70;;;1.60;;
4810;SDS011;2419;51.276;6.472;2024-02-14T02:39:35;1.37;;;1.27;;
4810;SDS011;2419;51.276;6.472;2024-02-14T02:42:05;1.47;;;1.23;;
4810;SDS011;2419;51.276;6.472;2024-02-14T02:44:33;4.73;;;1.70;;
4810;SDS011;2419;51.276;6.472;2024-02-14T02:47:04;1.73;;;1.30;;
4810;SDS011;2419;51.276;6.472;2024-02-14T02:49:32;1.90;;;1.30;;
4810;SDS011;2419;51.276;6.472;2024-02-14T02:52:00;2.53;;;1.50;;
4810;SDS011;2419;51.276;6.472;2024-02-14T02:54:29;3.17;;;1.60;;
4810;SDS011;2419;51.276;6.472;2024-02-14T02:56:57;1.77;;;1.50;;
4810;SDS011;2419;51.276;6.472;2024-02-14T02:59:26;1.77;;;1.60;;
4810;SDS011;2419;51.276;6.472;2024-02-14T03:01:56;4.40;;;1.70;;
4810;SDS011;2419;51.276;6.472;2024-02-14T03:04:24;6.60;;;1.63;;
4810;SDS011;2419;51.276;6.472;2024-02-14T03:07:12;1.70;;;1.43;;
4810;SDS011;2419;51.276;6.472;2024-02-14T03:09:40;5.30;;;2.00;;
4810;SDS011;2419;51.276;6.472;2024-02-14T03:12:09;1.60;;;1.50;;
4810;SDS011;2419;51.276;6.472;2024-02-14T03:14:39;2.23;;;1.90;;
4810;SDS011;2419;51.276;6.472;2024-02-14T03:17:08;1.93;;;1.63;;
4810;SDS011;2419;51.276;6.472;2024-02-14T03:19:36;1.90;;;1.80;;
4810;SDS011;2419;51.276;6.472;2024-02-14T03:22:05;3.17;;;2.07;;
4810;SDS011;2419;51.276;6.472;2024-02-14T03:24:35;2.73;;;1.87;;
4810;SDS011;2419;51.276;6.472;2024-02-14T03:27:04;1.83;;;1.67;;
4810;SDS011;2419;51.276;6.472;2024-02-14T03:29:32;1.93;;;1.67;;
4810;SDS011;2419;51.276;6.472;2024-02-14T03:32:03;1.97;;;1.77;;
4810;SDS011;2419;51.276;6.472;2024-02-14T03:34:32;4.00;;;2.00;;
4810;SDS011;2419;51.276;6.472;2024-02-14T03:37:02;4.37;;;1.73;;
4810;SDS011;2419;51.276;6.472;2024-02-14T03:39:30;5.17;;;1.93;;
4810;SDS011;2419;51.276;6.472;2024-02-14T03:41:58;8.00;;;1.90;;
4810;SDS011;2419;51.276;6.472;2024-02-14T03:44:29;2.60;;;1.93;;
4810;SDS011;2419;51.276;6.472;2024-02-14T03:46:58;2.57;;;2.00;;
4810;SDS011;2419;51.276;6.472;2024-02-14T03:49:28;3.47;;;2.13;;
4810;SDS011;2419;51.276;6.472;2024-02-14T03:51:56;7.03;;;2.10;;
4810;SDS011;2419;51.276;6.472;2024-02-14T03:54:25;2.40;;;1.67;;
4810;SDS011;2419;51.276;6.472;2024-02-14T03:56:53;2.70;;;1.90;;
4810;SDS011;2419;51.276;6.472;2024-02-14T03:59:22;2.13;;;1.90;;
4810;SDS011;2419;51.276;6.472;2024-02-14T04:01:51;2.43;;;1.83;;
4810;SDS011;2419;51.276;6.472;2024-02-14T04:04:19;3.27;;;2.37;;
4810;SDS011;2419;51.276;6.472;2024-02-14T04:06:49;2.33;;;2.13;;
4810;SDS011;2419;51.276;6.472;2024-02-14T04:09:17;3.07;;;2.07;;
4810;SDS011;2419;51.276;6.472;2024-02-14T04:11:45;2.10;;;1.77;;
4810;SDS011;2419;51.276;6.472;2024-02-14T04:14:14;3.23;;;2.40;;
4810;SDS011;2419;51.276;6.472;2024-02-14T04:16:42;3.13;;;2.07;;
4810;SDS011;2419;51.276;6.472;2024-02-14T04:19:10;3.33;;;2.00;;
4810;SDS011;2419;51.276;6.472;2024-02-14T04:21:39;10.50;;;2.17;;
4810;SDS011;2419;51.276;6.472;2024-02-14T04:24:09;4.20;;;2.20;;
4810;SDS011;2419;51.276;6.472;2024-02-14T04:26:37;3.33;;;2.17;;
4810;SDS011;2419;51.276;6.472;2024-02-14T04:29:05;1.60;;;1.50;;
4810;SDS011;2419;51.276;6.472;2024-02-14T04:31:35;4.70;;;2.80;;
4810;SDS011;2419;51.276;6.472;2024-02-14T04:34:03;6.03;;;1.97;;
4810;SDS011;2419;51.276;6.472;2024-02-14T04:36:35;2.93;;;2.13;;
4810;SDS011;2419;51.276;6.472;2024-02-14T04:39:03;4.00;;;2.53;;
4810;SDS011;2419;51.276;6.472;2024-02-14T04:41:33;2.30;;;1.77;;
4810;SDS011;2419;51.276;6.472;2024-02-14T04:44:22;1.90;;;1.80;;
4810;SDS011;2419;51.276;6.472;2024-02-14T04:46:50;3.33;;;2.00;;
4810;SDS011;2419;51.276;6.472;2024-02-14T04:49:18;3.80;;;2.47;;
4810;SDS011;2419;51.276;6.472;2024-02-14T04:51:46;5.20;;;2.23;;
4810;SDS011;2419;51.276;6.472;2024-02-14T04:54:14;4.27;;;2.70;;
4810;SDS011;2419;51.276;6.472;2024-02-14T04:56:44;2.73;;;2.23;;
4810;SDS011;2419;51.276;6.472;2024-02-14T04:59:16;3.20;;;2.43;;
4810;SDS011;2419;51.276;6.472;2024-02-14T05:01:44;6.87;;;2.63;;
4810;SDS011;2419;51.276;6.472;2024-02-14T05:04:12;3.17;;;2.00;;
4810;SDS011;2419;51.276;6.472;2024-02-14T05:06:43;2.77;;;2.13;;
4810;SDS011;2419;51.276;6.472;2024-02-14T05:09:11;4.10;;;2.40;;
4810;SDS011;2419;51.276;6.472;2024-02-14T05:11:41;2.90;;;2.27;;
4810;SDS011;2419;51.276;6.472;2024-02-14T05:14:10;7.03;;;2.53;;
4810;SDS011;2419;51.276;6.472;2024-02-14T05:16:38;2.70;;;2.00;;
4810;SDS011;2419;51.276;6.472;2024-02-14T05:19:06;3.07;;;2.00;;
4810;SDS011;2419;51.276;6.472;2024-02-14T05:21:36;3.53;;;2.30;;
4810;SDS011;2419;51.276;6.472;2024-02-14T05:24:04;8.10;;;2.53;;
4810;SDS011;2419;51.276;6.472;2024-02-14T05:26:33;3.57;;;2.80;;
4810;SDS011;2419;51.276;6.472;2024-02-14T05:29:01;2.57;;;2.27;;
4810;SDS011;2419;51.276;6.472;2024-02-14T05:31:42;4.47;;;2.70;;
4810;SDS011;2419;51.276;6.472;2024-02-14T05:34:11;2.77;;;1.93;;
4810;SDS011;2419;51.276;6.472;2024-02-14T05:36:40;3.67;;;2.33;;
4810;SDS011;2419;51.276;6.472;2024-02-14T05:39:09;6.90;;;2.80;;
4810;SDS011;2419;51.276;6.472;2024-02-14T05:41:37;4.03;;;2.47;;
4810;SDS011;2419;51.276;6.472;2024-02-14T05:44:05;3.40;;;2.80;;
4810;SDS011;2419;51.276;6.472;2024-02-14T05:46:35;3.30;;;2.60;;
4810;SDS011;2419;51.276;6.472;2024-02-14T05:49:03;4.00;;;2.60;;
4810;SDS011;2419;51.276;6.472;2024-02-14T05:51:32;3.83;;;2.77;;
4810;SDS011;2419;51.276;6.472;2024-02-14T05:54:00;4.97;;;2.80;;
4810;SDS011;2419;51.276;6.472;2024-02-14T05:56:29;2.73;;;2.43;;
4810;SDS011;2419;51.276;6.472;2024-02-14T05:58:57;3.63;;;2.80;;
4810;SDS011;2419;51.276;6.472;2024-02-14T06:01:25;3.20;;;2.90;;
4810;SDS011;2419;51.276;6.472;2024-02-14T06:03:56;4.70;;;2.97;;
4810;SDS011;2419;51.276;6.472;2024-02-14T06:06:24;4.10;;;2.43;;
4810;SDS011;2419;51.276;6.472;2024-02-14T06:08:52;2.90;;;2.30;;
4810;SDS011;2419;51.276;6.472;2024-02-14T06:11:21;3.17;;;2.83;;
4810;SDS011;2419;51.276;6.472;2024-02-14T06:13:49;3.63;;;2.93;;
4810;SDS011;2419;51.276;6.472;2024-02-14T06:16:17;5.40;;;2.63;;
4810;SDS011;2419;51.276;6.472;2024-02-14T06:18:45;5.17;;;3.47;;
4810;SDS011;2419;51.276;6.472;2024-02-14T06:21:15;4.07;;;3.10;;
4810;SDS011;2419;51.276;6.472;2024-02-14T06:23:43;3.93;;;2.73;;
4810;SDS011;2419;51.276;6.472;2024-02-14T06:26:13;5.80;;;3.07;;
4810;SDS011;2419;51.276;6.472;2024-02-14T06:28:41;4.20;;;2.90;;
4810;SDS011;2419;51.276;6.472;2024-02-14T06:31:09;3.40;;;3.10;;
4810;SDS011;2419;51.276;6.472;2024-02-14T06:33:37;3.20;;;2.63;;
4810;SDS011;2419;51.276;6.472;2024-02-14T06:36:06;3.30;;;2.70;;
4810;SDS011;2419;51.276;6.472;2024-02-14T06:38:35;3.63;;;3.10;;
4810;SDS011;2419;51.276;6.472;2024-02-14T06:41:05;7.53;;;3.47;;
4810;SDS011;2419;51.276;6.472;2024-02-14T06:43:33;4.47;;;3.40;;
4810;SDS011;2419;51.276;6.472;2024-02-14T06:46:02;3.70;;;3.03;;
4810;SDS011;2419;51.276;6.472;2024-02-14T06:48:30;3.53;;;3.17;;
4810;SDS011;2419;51.276;6.472;2024-02-14T06:50:59;5.70;;;3.30;;
4810;SDS011;2419;51.276;6.472;2024-02-14T06:53:27;6.10;;;3.30;;
4810;SDS011;2419;51.276;6.472;2024-02-14T06:55:58;3.50;;;3.20;;
4810;SDS011;2419;51.276;6.472;2024-02-14T06:58:26;6.00;;;3.10;;
4810;SDS011;2419;51.276;6.472;2024-02-14T07:00:54;4.67;;;3.20;;
4810;SDS011;2419;51.276;6.472;2024-02-14T07:03:22;4.80;;;3.40;;
4810;SDS011;2419;51.276;6.472;2024-02-14T07:05:50;4.10;;;3.60;;
4810;SDS011;2419;51.276;6.472;2024-02-14T07:08:19;5.70;;;3.60;;
4810;SDS011;2419;51.276;6.472;2024-02-14T07:10:47;4.80;;;3.40;;
4810;SDS011;2419;51.276;6.472;2024-02-14T07:13:16;3.40;;;2.73;;
4810;SDS011;2419;51.276;6.472;2024-02-14T07:15:44;3.60;;;3.00;;
4810;SDS011;2419;51.276;6.472;2024-02-14T07:18:13;4.17;;;2.97;;
4810;SDS011;2419;51.276;6.472;2024-02-14T07:20:41;6.23;;;3.50;;
4810;SDS011;2419;51.276;6.472;2024-02-14T07:23:10;5.60;;;3.40;;
4810;SDS011;2419;51.276;6.472;2024-02-14T07:25:38;5.40;;;2.93;;
4810;SDS011;2419;51.276;6.472;2024-02-14T07:28:06;4.60;;;3.10;;
4810;SDS011;2419;51.276;6.472;2024-02-14T07:30:35;3.77;;;3.23;;
4810;SDS011;2419;51.276;6.472;2024-02-14T07:33:04;7.00;;;3.27;;
4810;SDS011;2419;51.276;6.472;2024-02-14T07:35:32;5.13;;;3.10;;
4810;SDS011;2419;51.276;6.472;2024-02-14T07:38:00;5.40;;;2.70;;
4810;SDS011;2419;51.276;6.472;2024-02-14T07:40:28;4.37;;;2.63;;
4810;SDS011;2419;51.276;6.472;2024-02-14T07:42:57;5.57;;;3.07;;
4810;SDS011;2419;51.276;6.472;2024-02-14T07:45:25;6.33;;;3.33;;
4810;SDS011;2419;51.276;6.472;2024-02-14T07:47:55;3.10;;;2.37;;
4810;SDS011;2419;51.276;6.472;2024-02-14T07:50:23;2.60;;;2.30;;
4810;SDS011;2419;51.276;6.472;2024-02-14T07:52:51;2.63;;;2.43;;
4810;SDS011;2419;51.276;6.472;2024-02-14T07:55:19;3.13;;;2.30;;
4810;SDS011;2419;51.276;6.472;2024-02-14T07:57:48;11.67;;;2.30;;
4810;SDS011;2419;51.276;6.472;2024-02-14T08:00:16;3.07;;;2.40;;
4810;SDS011;2419;51.276;6.472;2024-02-14T08:02:49;2.70;;;2.23;;
4810;SDS011;2419;51.276;6.472;2024-02-14T08:05:18;3.60;;;2.37;;
4810;SDS011;2419;51.276;6.472;2024-02-14T08:07:47;5.00;;;2.13;;
4810;SDS011;2419;51.276;6.472;2024-02-14T08:10:15;2.30;;;2.10;;
4810;SDS011;2419;51.276;6.472;2024-02-14T08:12:43;6.13;;;2.80;;
4810;SDS011;2419;51.276;6.472;2024-02-14T08:15:11;3.80;;;2.30;;
4810;SDS011;2419;51.276;6.472;2024-02-14T08:17:39;3.13;;;2.33;;
4810;SDS011;2419;51.276;6.472;2024-02-14T08:20:13;2.80;;;2.00;;
4810;SDS011;2419;51.276;6.472;2024-02-14T08:22:47;4.23;;;3.07;;
4810;SDS011;2419;51.276;6.472;2024-02-14T08:25:16;3.10;;;2.10;;
4810;SDS011;2419;51.276;6.472;2024-02-14T08:27:44;7.63;;;2.87;;
4810;SDS011;2419;51.276;6.472;2024-02-14T08:30:14;6.40;;;2.40;;
4810;SDS011;2419;51.276;6.472;2024-02-14T08:32:42;3.50;;;2.00;;
4810;SDS011;2419;51.276;6.472;2024-02-14T08:35:11;3.60;;;2.33;;
4810;SDS011;2419;51.276;6.472;2024-02-14T08:37:40;5.17;;;2.13;;
4810;SDS011;2419;51.276;6.472;2024-02-14T08:40:10;3.07;;;2.17;;
4810;SDS011;2419;51.276;6.472;2024-02-14T08:42:39;4.00;;;2.33;;
4810;SDS011;2419;51.276;6.472;2024-02-14T08:45:07;4.17;;;2.00;;
4810;SDS011;2419;51.276;6.472;2024-02-14T08:47:38;2.57;;;1.90;;
4810;SDS011;2419;51.276;6.472;2024-02-14T08:50:07;6.33;;;2.13;;
4810;SDS011;2419;51.276;6.472;2024-02-14T08:52:36;3.53;;;2.47;;
4810;SDS011;2419;51.276;6.472;2024-02-14T08:55:04;4.80;;;2.93;;
4810;SDS011;2419;51.276;6.472;2024-02-14T08:57:38;4.37;;;2.10;;
4810;SDS011;2419;51.276;6.472;2024-02-14T09:00:07;4.07;;;2.60;;
4810;SDS011;2419;51.276;6.472;2024-02-14T09:02:37;2.80;;;1.63;;
4810;SDS011;2419;51.276;6.472;2024-02-14T09:05:05;3.50;;;2.10;;
4810;SDS011;2419;51.276;6.472;2024-02-14T09:07:33;4.60;;;2.23;;
4810;SDS011;2419;51.276;6.472;2024-02-14T09:10:03;3.17;;;2.10;;
4810;SDS011;2419;51.276;6.472;2024-02-14T09:12:32;6.33;;;2.47;;
4810;SDS011;2419;51.276;6.472;2024-02-14T09:15:02;3.73;;;1.90;;
4810;SDS011;2419;51.276;6.472;2024-02-14T09:17:31;5.30;;;2.33;;
4810;SDS011;2419;51.276;6.472;2024-02-14T09:19:59;5.17;;;2.10;;
4810;SDS011;2419;51.276;6.472;2024-02-14T09:22:28;4.27;;;1.97;;
4810;SDS011;2419;51.276;6.472;2024-02-14T09:24:57;4.10;;;1.77;;
4810;SDS011;2419;51.276;6.472;2024-02-14T09:27:25;7.70;;;2.60;;
4810;SDS011;2419;51.276;6.472;2024-02-14T09:29:53;1.97;;;1.70;;
4810;SDS011;2419;51.276;6.472;2024-02-14T09:32:22;2.60;;;1.80;;
4810;SDS011;2419;51.276;6.472;2024-02-14T09:34:50;2.40;;;1.77;;
4810;SDS011;2419;51.276;6.472;2024-02-14T09:37:19;1.97;;;1.77;;
4810;SDS011;2419;51.276;6.472;2024-02-14T09:39:47;3.67;;;1.87;;
4810;SDS011;2419;51.276;6.472;2024-02-14T09:42:15;4.43;;;1.80;;
4810;SDS011;2419;51.276;6.472;2024-02-14T09:44:46;2.10;;;1.67;;
4810;SDS011;2419;51.276;6.472;2024-02-14T09:47:18;3.20;;;1.50;;
4810;SDS011;2419;51.276;6.472;2024-02-14T09:49:48;4.20;;;1.80;;
4810;SDS011;2419;51.276;6.472;2024-02-14T09:52:17;8.27;;;2.13;;
4810;SDS011;2419;51.276;6.472;2024-02-14T09:54:47;4.00;;;1.83;;
4810;SDS011;2419;51.276;6.472;2024-02-14T09:57:15;3.47;;;2.10;;
4810;SDS011;2419;51.276;6.472;2024-02-14T09:59:44;1.57;;;1.43;;
4810;SDS011;2419;51.276;6.472;2024-02-14T10:02:13;4.47;;;1.90;;
4810;SDS011;2419;51.276;6.472;2024-02-14T10:04:41;6.20;;;2.00;;
4810;SDS011;2419;51.276;6.472;2024-02-14T10:07:10;1.90;;;1.70;;
4810;SDS011;2419;51.276;6.472;2024-02-14T10:09:41;2.10;;;1.23;;
4810;SDS011;2419;51.276;6.472;2024-02-14T10:12:10;4.80;;;1.70;;
4810;SDS011;2419;51.276;6.472;2024-02-14T10:14:39;2.60;;;1.70;;
4810;SDS011;2419;51.276;6.472;2024-02-14T10:17:16;3.00;;;1.73;;
4810;SDS011;2419;51.276;6.472;2024-02-14T10:19:54;1.60;;;1.50;;
4810;SDS011;2419;51.276;6.472;2024-02-14T10:22:24;7.13;;;2.03;;
4810;SDS011;2419;51.276;6.472;2024-02-14T10:24:59;2.40;;;1.60;;
4810;SDS011;2419;51.276;6.472;2024-02-14T10:27:27;4.20;;;1.80;;
4810;SDS011;2419;51.276;6.472;2024-02-14T10:29:55;1.87;;;1.67;;
4810;SDS011;2419;51.276;6.472;2024-02-14T10:32:24;3.13;;;1.80;;
4810;SDS011;2419;51.276;6.472;2024-02-14T10:34:52;2.20;;;1.67;;
4810;SDS011;2419;51.276;6.472;2024-02-14T10:37:20;3.70;;;1.60;;
4810;SDS011;2419;51.276;6.472;2024-02-14T10:39:51;1.70;;;1.60;;
4810;SDS011;2419;51.276;6.472;2024-02-14T10:42:20;2.60;;;1.53;;
4810;SDS011;2419;51.276;6.472;2024-02-14T10:44:48;4.20;;;1.90;;
4810;SDS011;2419;51.276;6.472;2024-02-14T10:47:19;2.17;;;1.50;;
4810;SDS011;2419;51.276;6.472;2024-02-14T10:49:48;5.73;;;1.93;;
4810;SDS011;2419;51.276;6.472;2024-02-14T10:52:17;2.90;;;1.90;;
4810;SDS011;2419;51.276;6.472;2024-02-14T10:54:47;1.80;;;1.50;;
4810;SDS011;2419;51.276;6.472;2024-02-14T10:57:24;3.53;;;1.77;;
4810;SDS011;2419;51.276;6.472;2024-02-14T10:59:52;2.87;;;1.30;;
4810;SDS011;2419;51.276;6.472;2024-02-14T11:02:21;3.90;;;1.30;;
4810;SDS011;2419;51.276;6.472;2024-02-14T11:04:50;1.40;;;1.13;;
4810;SDS011;2419;51.276;6.472;2024-02-14T11:07:19;2.80;;;1.40;;
4810;SDS011;2419;51.276;6.472;2024-02-14T11:10:00;1.93;;;1.20;;
4810;SDS011;2419;51.276;6.472;2024-02-14T11:12:32;8.10;;;1.70;;
4810;SDS011;2419;51.276;6.472;2024-02-14T11:15:08;3.77;;;1.57;;
4810;SDS011;2419;51.276;6.472;2024-02-14T11:17:38;4.43;;;1.37;;
4810;SDS011;2419;51.276;6.472;2024-02-14T11:20:16;1.10;;;1.03;;
4810;SDS011;2419;51.276;6.472;2024-02-14T11:22:57;5.23;;;2.03;;
4810;SDS011;2419;51.276;6.472;2024-02-14T11:25:31;1.53;;;1.10;;
4810;SDS011;2419;51.276;6.472;2024-02-14T11:28:01;5.63;;;1.13;;
4810;SDS011;2419;51.276;6.472;2024-02-14T11:30:40;1.43;;;1.33;;
4810;SDS011;2419;51.276;6.472;2024-02-14T11:33:13;1.40;;;1.30;;
4810;SDS011;2419;51.276;6.472;2024-02-14T11:35:43;3.13;;;1.10;;
4810;SDS011;2419;51.276;6.472;2024-02-14T11:38:11;2.10;;;1.53;;
4810;SDS011;2419;51.276;6.472;2024-02-14T11:40:41;2.70;;;1.23;;
4810;SDS011;2419;51.276;6.472;2024-02-14T11:43:11;3.10;;;1.20;;
4810;SDS011;2419;51.276;6.472;2024-02-14T11:45:41;5.13;;;1.37;;
4810;SDS011;2419;51.276;6.472;2024-02-14T11:48:09;2.10;;;1.47;;
4810;SDS011;2419;51.276;6.472;2024-02-14T11:50:39;2.13;;;1.43;;
4810;SDS011;2419;51.276;6.472;2024-02-14T11:53:09;1.20;;;1.10;;
4810;SDS011;2419;51.276;6.472;2024-02-14T11:55:38;2.73;;;1.67;;
4810;SDS011;2419;51.276;6.472;2024-02-14T11:58:08;4.87;;;1.60;;
4810;SDS011;2419;51.276;6.472;2024-02-14T12:00:37;1.40;;;1.30;;
4810;SDS011;2419;51.276;6.472;2024-02-14T12:03:07;1.40;;;1.20;;
4810;SDS011;2419;51.276;6.472;2024-02-14T12:05:36;3.37;;;1.40;;
4810;SDS011;2419;51.276;6.472;2024-02-14T12:08:05;1.50;;;1.40;;
4810;SDS011;2419;51.276;6.472;2024-02-14T12:10:35;3.53;;;1.53;;
4810;SDS011;2419;51.276;6.472;2024-02-14T12:13:06;4.80;;;1.77;;
4810;SDS011;2419;51.276;6.472;2024-02-14T12:15:38;1.23;;;1.13;;
4810;SDS011;2419;51.276;6.472;2024-02-14T12:18:07;1.20;;;1.10;;
4810;SDS011;2419;51.276;6.472;2024-02-14T12:20:37;3.23;;;1.60;;
4810;SDS011;2419;51.276;6.472;2024-02-14T12:23:05;1.73;;;1.20;;
4810;SDS011;2419;51.276;6.472;2024-02-14T12:25:33;1.83;;;1.40;;
4810;SDS011;2419;51.276;6.472;2024-02-14T12:28:01;2.33;;;1.33;;
4810;SDS011;2419;51.276;6.472;2024-02-14T12:30:42;1.30;;;1.10;;
4810;SDS011;2419;51.276;6.472;2024-02-14T12:33:12;2.60;;;1.20;;
4810;SDS011;2419;51.276;6.472;2024-02-14T12:35:41;3.03;;;1.23;;
4810;SDS011;2419;51.276;6.472;2024-02-14T12:38:10;1.60;;;1.40;;
4810;SDS011;2419;51.276;6.472;2024-02-14T12:40:39;1.83;;;1.30;;
4810;SDS011;2419;51.276;6.472;2024-02-14T12:43:09;2.03;;;1.30;;
4810;SDS011;2419;51.276;6.472;2024-02-14T12:45:39;1.10;;;1.00;;
4810;SDS011;2419;51.276;6.472;2024-02-14T12:48:08;2.97;;;2.70;;
4810;SDS011;2419;51.276;6.472;2024-02-14T12:50:38;1.13;;;1.03;;
4810;SDS011;2419;51.276;6.472;2024-02-14T12:53:11;5.23;;;1.20;;
4810;SDS011;2419;51.276;6.472;2024-02-14T12:55:39;1.10;;;1.00;;
4810;SDS011;2419;51.276;6.472;2024-02-14T12:58:07;1.23;;;1.00;;
4810;SDS011;2419;51.276;6.472;2024-02-14T13:00:36;1.00;;;0.90;;
4810;SDS011;2419;51.276;6.472;2024-02-14T13:03:06;1.20;;;1.10;;
4810;SDS011;2419;51.276;6.472;2024-02-14T13:05:34;3.13;;;1.20;;
4810;SDS011;2419;51.276;6.472;2024-02-14T13:08:02;0.80;;;0.80;;
4810;SDS011;2419;51.276;6.472;2024-02-14T13:10:32;1.40;;;1.30;;
4810;SDS011;2419;51.276;6.472;2024-02-14T13:13:00;4.47;;;1.30;;
4810;SDS011;2419;51.276;6.472;2024-02-14T13:15:28;1.30;;;1.20;;
4810;SDS011;2419;51.276;6.472;2024-02-14T13:17:56;0.90;;;0.90;;
4810;SDS011;2419;51.276;6.472;2024-02-14T13:20:27;1.10;;;0.90;;
4810;SDS011;2419;51.276;6.472;2024-02-14T13:22:55;1.53;;;1.07;;
4810;SDS011;2419;51.276;6.472;2024-02-14T13:25:24;1.00;;;0.80;;
4810;SDS011;2419;51.276;6.472;2024-02-14T13:27:52;4.27;;;0.90;;
4810;SDS011;2419;51.276;6.472;2024-02-14T13:30:21;1.20;;;1.00;;
4810;SDS011;2419;51.276;6.472;2024-02-14T13:32:50;1.00;;;0.90;;
4810;SDS011;2419;51.276;6.472;2024-02-14T13:35:18;1.17;;;0.80;;
4810;SDS011;2419;51.276;6.472;2024-02-14T13:37:48;1.23;;;1.13;;
4810;SDS011;2419;51.276;6.472;2024-02-14T13:40:16;1.37;;;1.10;;
4810;SDS011;2419;51.276;6.472;2024-02-14T13:42:44;1.17;;;1.03;;
4810;SDS011;2419;51.276;6.472;2024-02-14T13:45:12;1.13;;;1.03;;
4810;SDS011;2419;51.276;6.472;2024-02-14T13:47:42;0.90;;;0.90;;
4810;SDS011;2419;51.276;6.472;2024-02-14T13:50:11;0.87;;;0.87;;
4810;SDS011;2419;51.276;6.472;2024-02-14T13:52:39;1.40;;;1.00;;
4810;SDS011;2419;51.276;6.472;2024-02-14T13:55:09;0.80;;;0.80;;
4810;SDS011;2419;51.276;6.472;2024-02-14T13:57:37;1.53;;;0.90;;
4810;SDS011;2419;51.276;6.472;2024-02-14T14:00:06;2.40;;;1.00;;
4810;SDS011;2419;51.276;6.472;2024-02-14T14:02:39;1.03;;;0.87;;
4810;SDS011;2419;51.276;6.472;2024-02-14T14:05:09;0.80;;;0.77;;
4810;SDS011;2419;51.276;6.472;2024-02-14T14:07:41;1.10;;;0.90;;
4810;SDS011;2419;51.276;6.472;2024-02-14T14:10:25;1.17;;;0.80;;
4810;SDS011;2419;51.276;6.472;2024-02-14T14:12:54;1.30;;;0.77;;
4810;SDS011;2419;51.276;6.472;2024-02-14T14:15:23;1.13;;;1.10;;
4810;SDS011;2419;51.276;6.472;2024-02-14T14:17:52;1.00;;;0.90;;
4810;SDS011;2419;51.276;6.472;2024-02-14T14:20:21;1.53;;;0.90;;
4810;SDS011;2419;51.276;6.472;2024-02-14T14:22:49;1.27;;;1.17;;
4810;SDS011;2419;51.276;6.472;2024-02-14T14:25:17;1.20;;;0.90;;
4810;SDS011;2419;51.276;6.472;2024-02-14T14:27:46;0.90;;;0.90;;
4810;SDS011;2419;51.276;6.472;2024-02-14T14:30:14;1.40;;;0.90;;
4810;SDS011;2419;51.276;6.472;2024-02-14T14:32:43;1.27;;;0.90;;
4810;SDS011;2419;51.276;6.472;2024-02-14T14:35:11;0.93;;;0.90;;
4810;SDS011;2419;51.276;6.472;2024-02-14T14:37:39;0.80;;;0.80;;
4810;SDS011;2419;51.276;6.472;2024-02-14T14:40:07;1.57;;;1.00;;
4810;SDS011;2419;51.276;6.472;2024-02-14T14:42:37;2.03;;;1.00;;
4810;SDS011;2419;51.276;6.472;2024-02-14T14:45:06;1.57;;;0.90;;
4810;SDS011;2419;51.276;6.472;2024-02-14T14:47:34;1.97;;;1.40;;
4810;SDS011;2419;51.276;6.472;2024-02-14T14:50:04;2.07;;;1.10;;
4810;SDS011;2419;51.276;6.472;2024-02-14T14:52:33;1.20;;;1.10;;
4810;SDS011;2419;51.276;6.472;2024-02-14T14:55:02;1.80;;;1.07;;
4810;SDS011;2419;51.276;6.472;2024-02-14T14:57:31;1.00;;;0.80;;
4810;SDS011;2419;51.276;6.472;2024-02-14T15:00:01;1.00;;;1.00;;
4810;SDS011;2419;51.276;6.472;2024-02-14T15:02:31;1.00;;;0.90;;
4810;SDS011;2419;51.276;6.472;2024-02-14T15:05:01;1.50;;;1.10;;
4810;SDS011;2419;51.276;6.472;2024-02-14T15:07:29;1.77;;;0.93;;
4810;SDS011;2419;51.276;6.472;2024-02-14T15:09:58;1.00;;;0.90;;
4810;SDS011;2419;51.276;6.472;2024-02-14T15:12:26;1.10;;;1.00;;
4810;SDS011;2419;51.276;6.472;2024-02-14T15:14:54;1.20;;;1.10;;
4810;SDS011;2419;51.276;6.472;2024-02-14T15:17:22;1.10;;;1.00;;
4810;SDS011;2419;51.276;6.472;2024-02-14T15:19:52;2.33;;;1.23;;
4810;SDS011;2419;51.276;6.472;2024-02-14T15:22:20;1.40;;;1.20;;
4810;SDS011;2419;51.276;6.472;2024-02-14T15:24:50;1.23;;;1.13;;
4810;SDS011;2419;51.276;6.472;2024-02-14T15:27:18;2.30;;;1.10;;